sensor_id;sensor_type;location;lat;lon;timestamp;P1;durP1;ratioP1;P2;durP2;ratioP2
85291;SDS011;76128;47.194;14.662;2024-03-25T00:02:07;1.45;;;0.98;;
85291;SDS011;76128;47.194;14.662;2024-03-25T00:04:32;1.05;;;0.77;;
85291;SDS011;76128;47.194;14.662;2024-03-25T00:06:58;1.73;;;0.95;;
85291;SDS011;76128;47.194;14.662;2024-03-25T00:09:24;2.20;;;1.00;;
85291;SDS011;76128;47.194;14.662;2024-03-25T00:11:49;1.58;;;1.00;;
85291;SDS011;76128;47.194;14.662;2024-03-25T00:14:20;2.10;;;0.93;;
85291;SDS011;76128;47.194;14.662;2024-03-25T00:16:45;1.33;;;0.90;;
85291;SDS011;76128;47.194;14.662;2024-03-25T00:19:11;1.30;;;0.82;;
85291;SDS011;76128;47.194;14.662;2024-03-25T00:21:37;2.55;;;1.08;;
85291;SDS011;76128;47.194;14.662;2024-03-25T00:24:02;2.08;;;1.00;;
85291;SDS011;76128;47.194;14.662;2024-03-25T00:26:28;1.65;;;1.00;;
85291;SDS011;76128;47.194;14.662;2024-03-25T00:28:54;1.52;;;1.10;;
85291;SDS011;76128;47.194;14.662;2024-03-25T00:31:19;1.52;;;0.90;;
85291;SDS011;76128;47.194;14.662;2024-03-25T00:33:45;4.40;;;1.35;;
85291;SDS011;76128;47.194;14.662;2024-03-25T00:36:10;1.75;;;1.00;;
85291;SDS011;76128;47.194;14.662;2024-03-25T00:38:36;2.05;;;1.10;;
85291;SDS011;76128;47.194;14.662;2024-03-25T00:41:01;2.20;;;1.20;;
85291;SDS011;76128;47.194;14.662;2024-03-25T00:43:27;1.98;;;1.00;;
85291;SDS011;76128;47.194;14.662;2024-03-25T00:45:53;1.70;;;1.10;;
85291;SDS011;76128;47.194;14.662;2024-03-25T00:48:18;2.65;;;1.00;;
85291;SDS011;76128;47.194;14.662;2024-03-25T00:50:44;1.80;;;1.00;;
85291;SDS011;76128;47.194;14.662;2024-03-25T00:53:09;1.77;;;1.10;;
85291;SDS011;76128;47.194;14.662;2024-03-25T00:55:34;1.60;;;1.00;;
85291;SDS011;76128;47.194;14.662;2024-03-25T00:58:01;1.58;;;1.05;;
85291;SDS011;76128;47.194;14.662;2024-03-25T01:00:27;1.88;;;1.05;;
85291;SDS011;76128;47.194;14.662;2024-03-25T01:02:53;2.03;;;1.05;;
85291;SDS011;76128;47.194;14.662;2024-03-25T01:05:18;2.83;;;1.38;;
85291;SDS011;76128;47.194;14.662;2024-03-25T01:07:43;1.75;;;1.10;;
85291;SDS011;76128;47.194;14.662;2024-03-25T01:10:09;1.90;;;1.17;;
85291;SDS011;76128;47.194;14.662;2024-03-25T01:12:34;3.13;;;0.93;;
85291;SDS011;76128;47.194;14.662;2024-03-25T01:15:00;2.17;;;1.05;;
85291;SDS011;76128;47.194;14.662;2024-03-25T01:17:28;1.90;;;1.00;;
85291;SDS011;76128;47.194;14.662;2024-03-25T01:19:53;2.75;;;1.23;;
85291;SDS011;76128;47.194;14.662;2024-03-25T01:22:19;1.80;;;0.95;;
85291;SDS011;76128;47.194;14.662;2024-03-25T01:24:44;1.90;;;1.02;;
85291;SDS011;76128;47.194;14.662;2024-03-25T01:27:10;1.95;;;1.08;;
85291;SDS011;76128;47.194;14.662;2024-03-25T01:29:35;2.63;;;1.20;;
85291;SDS011;76128;47.194;14.662;2024-03-25T01:32:01;2.83;;;1.40;;
85291;SDS011;76128;47.194;14.662;2024-03-25T01:34:27;2.42;;;1.40;;
85291;SDS011;76128;47.194;14.662;2024-03-25T01:36:53;2.53;;;1.35;;
85291;SDS011;76128;47.194;14.662;2024-03-25T01:39:18;3.35;;;1.58;;
85291;SDS011;76128;47.194;14.662;2024-03-25T01:41:44;3.85;;;1.60;;
85291;SDS011;76128;47.194;14.662;2024-03-25T01:44:10;3.95;;;1.90;;
85291;SDS011;76128;47.194;14.662;2024-03-25T01:46:36;3.85;;;1.73;;
85291;SDS011;76128;47.194;14.662;2024-03-25T01:49:01;2.83;;;1.60;;
85291;SDS011;76128;47.194;14.662;2024-03-25T01:51:27;4.30;;;1.67;;
85291;SDS011;76128;47.194;14.662;2024-03-25T01:53:53;3.60;;;1.42;;
85291;SDS011;76128;47.194;14.662;2024-03-25T01:56:20;3.45;;;1.75;;
85291;SDS011;76128;47.194;14.662;2024-03-25T01:58:47;3.70;;;1.70;;
85291;SDS011;76128;47.194;14.662;2024-03-25T02:01:13;5.82;;;1.80;;
85291;SDS011;76128;47.194;14.662;2024-03-25T02:03:40;3.40;;;1.50;;
85291;SDS011;76128;47.194;14.662;2024-03-25T02:06:09;2.95;;;1.55;;
85291;SDS011;76128;47.194;14.662;2024-03-25T02:08:40;2.92;;;1.50;;
85291;SDS011;76128;47.194;14.662;2024-03-25T02:11:06;2.50;;;1.50;;
85291;SDS011;76128;47.194;14.662;2024-03-25T02:13:32;3.55;;;1.50;;
85291;SDS011;76128;47.194;14.662;2024-03-25T02:15:57;2.88;;;1.50;;
85291;SDS011;76128;47.194;14.662;2024-03-25T02:18:23;2.70;;;1.50;;
85291;SDS011;76128;47.194;14.662;2024-03-25T02:20:48;3.28;;;1.67;;
85291;SDS011;76128;47.194;14.662;2024-03-25T02:23:14;3.53;;;1.70;;
85291;SDS011;76128;47.194;14.662;2024-03-25T02:25:40;4.80;;;2.05;;
85291;SDS011;76128;47.194;14.662;2024-03-25T02:28:07;3.47;;;1.70;;
85291;SDS011;76128;47.194;14.662;2024-03-25T02:30:33;2.47;;;1.63;;
85291;SDS011;76128;47.194;14.662;2024-03-25T02:32:58;4.82;;;2.85;;
85291;SDS011;76128;47.194;14.662;2024-03-25T02:35:24;4.53;;;2.28;;
85291;SDS011;76128;47.194;14.662;2024-03-25T02:37:51;5.68;;;2.20;;
85291;SDS011;76128;47.194;14.662;2024-03-25T02:40:17;3.85;;;1.92;;
85291;SDS011;76128;47.194;14.662;2024-03-25T02:42:43;4.18;;;1.90;;
85291;SDS011;76128;47.194;14.662;2024-03-25T02:45:08;3.63;;;1.90;;
85291;SDS011;76128;47.194;14.662;2024-03-25T02:47:34;3.40;;;1.90;;
85291;SDS011;76128;47.194;14.662;2024-03-25T02:49:59;4.75;;;1.80;;
85291;SDS011;76128;47.194;14.662;2024-03-25T02:52:25;3.67;;;1.42;;
85291;SDS011;76128;47.194;14.662;2024-03-25T02:54:51;3.63;;;1.65;;
85291;SDS011;76128;47.194;14.662;2024-03-25T02:57:16;5.60;;;1.63;;
85291;SDS011;76128;47.194;14.662;2024-03-25T02:59:42;3.75;;;1.80;;
85291;SDS011;76128;47.194;14.662;2024-03-25T03:02:07;3.22;;;1.42;;
85291;SDS011;76128;47.194;14.662;2024-03-25T03:04:33;3.97;;;1.55;;
85291;SDS011;76128;47.194;14.662;2024-03-25T03:06:58;3.83;;;2.00;;
85291;SDS011;76128;47.194;14.662;2024-03-25T03:09:24;5.18;;;2.70;;
85291;SDS011;76128;47.194;14.662;2024-03-25T03:11:50;4.57;;;2.30;;
85291;SDS011;76128;47.194;14.662;2024-03-25T03:14:15;6.03;;;2.85;;
85291;SDS011;76128;47.194;14.662;2024-03-25T03:16:42;12.55;;;4.80;;
85291;SDS011;76128;47.194;14.662;2024-03-25T03:19:07;10.75;;;4.30;;
85291;SDS011;76128;47.194;14.662;2024-03-25T03:21:32;11.45;;;4.15;;
85291;SDS011;76128;47.194;14.662;2024-03-25T03:23:58;4.65;;;2.00;;
85291;SDS011;76128;47.194;14.662;2024-03-25T03:26:23;6.32;;;3.47;;
85291;SDS011;76128;47.194;14.662;2024-03-25T03:28:53;6.55;;;2.67;;
85291;SDS011;76128;47.194;14.662;2024-03-25T03:31:19;4.45;;;2.53;;
85291;SDS011;76128;47.194;14.662;2024-03-25T03:33:46;6.05;;;2.58;;
85291;SDS011;76128;47.194;14.662;2024-03-25T03:36:14;6.72;;;2.40;;
85291;SDS011;76128;47.194;14.662;2024-03-25T03:38:40;4.05;;;2.03;;
85291;SDS011;76128;47.194;14.662;2024-03-25T03:41:06;4.68;;;1.92;;
85291;SDS011;76128;47.194;14.662;2024-03-25T03:43:31;4.60;;;2.10;;
85291;SDS011;76128;47.194;14.662;2024-03-25T03:45:57;3.10;;;1.80;;
85291;SDS011;76128;47.194;14.662;2024-03-25T03:48:22;4.05;;;1.80;;
85291;SDS011;76128;47.194;14.662;2024-03-25T03:50:48;4.07;;;1.60;;
85291;SDS011;76128;47.194;14.662;2024-03-25T03:53:13;3.03;;;1.98;;
85291;SDS011;76128;47.194;14.662;2024-03-25T03:55:39;2.75;;;1.50;;
85291;SDS011;76128;47.194;14.662;2024-03-25T03:58:04;2.20;;;1.30;;
85291;SDS011;76128;47.194;14.662;2024-03-25T04:00:32;2.70;;;1.42;;
85291;SDS011;76128;47.194;14.662;2024-03-25T04:02:59;2.80;;;1.50;;
85291;SDS011;76128;47.194;14.662;2024-03-25T04:05:28;2.38;;;1.30;;
85291;SDS011;76128;47.194;14.662;2024-03-25T04:07:54;2.53;;;1.30;;
85291;SDS011;76128;47.194;14.662;2024-03-25T04:10:20;2.80;;;1.30;;
85291;SDS011;76128;47.194;14.662;2024-03-25T04:12:45;2.72;;;1.50;;
85291;SDS011;76128;47.194;14.662;2024-03-25T04:15:11;2.50;;;1.48;;
85291;SDS011;76128;47.194;14.662;2024-03-25T04:17:43;2.63;;;1.40;;
85291;SDS011;76128;47.194;14.662;2024-03-25T04:20:10;3.58;;;1.20;;
85291;SDS011;76128;47.194;14.662;2024-03-25T04:22:36;2.70;;;1.45;;
85291;SDS011;76128;47.194;14.662;2024-03-25T04:25:02;5.18;;;2.45;;
85291;SDS011;76128;47.194;14.662;2024-03-25T04:27:28;4.13;;;2.00;;
85291;SDS011;76128;47.194;14.662;2024-03-25T04:29:53;14.50;;;5.45;;
85291;SDS011;76128;47.194;14.662;2024-03-25T04:32:19;9.40;;;4.65;;
85291;SDS011;76128;47.194;14.662;2024-03-25T04:34:44;12.15;;;4.47;;
85291;SDS011;76128;47.194;14.662;2024-03-25T04:37:09;13.90;;;5.07;;
85291;SDS011;76128;47.194;14.662;2024-03-25T04:39:35;10.07;;;4.20;;
85291;SDS011;76128;47.194;14.662;2024-03-25T04:42:00;9.02;;;2.85;;
85291;SDS011;76128;47.194;14.662;2024-03-25T04:44:27;6.80;;;3.45;;
85291;SDS011;76128;47.194;14.662;2024-03-25T04:46:52;6.05;;;3.38;;
85291;SDS011;76128;47.194;14.662;2024-03-25T04:49:18;5.90;;;2.78;;
85291;SDS011;76128;47.194;14.662;2024-03-25T04:51:43;6.95;;;3.22;;
85291;SDS011;76128;47.194;14.662;2024-03-25T04:54:09;6.25;;;3.00;;
85291;SDS011;76128;47.194;14.662;2024-03-25T04:56:34;7.95;;;3.05;;
85291;SDS011;76128;47.194;14.662;2024-03-25T04:59:00;8.05;;;3.20;;
85291;SDS011;76128;47.194;14.662;2024-03-25T05:01:27;5.45;;;3.00;;
85291;SDS011;76128;47.194;14.662;2024-03-25T05:03:55;5.13;;;3.00;;
85291;SDS011;76128;47.194;14.662;2024-03-25T05:06:20;7.53;;;2.95;;
85291;SDS011;76128;47.194;14.662;2024-03-25T05:08:46;5.30;;;2.72;;
85291;SDS011;76128;47.194;14.662;2024-03-25T05:11:13;7.68;;;3.40;;
85291;SDS011;76128;47.194;14.662;2024-03-25T05:13:38;6.60;;;3.00;;
85291;SDS011;76128;47.194;14.662;2024-03-25T05:16:04;7.63;;;3.20;;
85291;SDS011;76128;47.194;14.662;2024-03-25T05:18:29;6.43;;;2.70;;
85291;SDS011;76128;47.194;14.662;2024-03-25T05:20:55;6.80;;;2.85;;
85291;SDS011;76128;47.194;14.662;2024-03-25T05:23:20;5.97;;;3.13;;
85291;SDS011;76128;47.194;14.662;2024-03-25T05:25:46;6.03;;;2.92;;
85291;SDS011;76128;47.194;14.662;2024-03-25T05:28:11;5.25;;;2.70;;
85291;SDS011;76128;47.194;14.662;2024-03-25T05:30:38;5.15;;;2.90;;
85291;SDS011;76128;47.194;14.662;2024-03-25T05:33:04;5.53;;;2.85;;
85291;SDS011;76128;47.194;14.662;2024-03-25T05:35:29;5.32;;;3.08;;
85291;SDS011;76128;47.194;14.662;2024-03-25T05:37:55;6.55;;;3.33;;
85291;SDS011;76128;47.194;14.662;2024-03-25T05:40:21;9.38;;;3.40;;
85291;SDS011;76128;47.194;14.662;2024-03-25T05:42:46;7.40;;;3.10;;
85291;SDS011;76128;47.194;14.662;2024-03-25T05:45:12;6.72;;;3.60;;
85291;SDS011;76128;47.194;14.662;2024-03-25T05:47:37;8.35;;;3.72;;
85291;SDS011;76128;47.194;14.662;2024-03-25T05:50:03;7.78;;;3.92;;
85291;SDS011;76128;47.194;14.662;2024-03-25T05:52:30;8.38;;;3.92;;
85291;SDS011;76128;47.194;14.662;2024-03-25T05:54:56;7.32;;;4.03;;
85291;SDS011;76128;47.194;14.662;2024-03-25T05:57:22;8.15;;;4.43;;
85291;SDS011;76128;47.194;14.662;2024-03-25T05:59:47;11.40;;;4.00;;
85291;SDS011;76128;47.194;14.662;2024-03-25T06:02:13;6.55;;;3.38;;
85291;SDS011;76128;47.194;14.662;2024-03-25T06:04:39;6.68;;;3.25;;
85291;SDS011;76128;47.194;14.662;2024-03-25T06:07:04;8.55;;;3.22;;
85291;SDS011;76128;47.194;14.662;2024-03-25T06:09:30;6.82;;;3.30;;
85291;SDS011;76128;47.194;14.662;2024-03-25T06:11:56;5.80;;;3.00;;
85291;SDS011;76128;47.194;14.662;2024-03-25T06:14:21;6.40;;;3.13;;
85291;SDS011;76128;47.194;14.662;2024-03-25T06:16:47;6.88;;;3.15;;
85291;SDS011;76128;47.194;14.662;2024-03-25T06:19:12;5.25;;;2.83;;
85291;SDS011;76128;47.194;14.662;2024-03-25T06:21:38;5.40;;;3.00;;
85291;SDS011;76128;47.194;14.662;2024-03-25T06:24:03;9.63;;;3.65;;
85291;SDS011;76128;47.194;14.662;2024-03-25T06:26:29;5.03;;;2.88;;
85291;SDS011;76128;47.194;14.662;2024-03-25T06:28:55;5.65;;;2.92;;
85291;SDS011;76128;47.194;14.662;2024-03-25T06:31:20;6.25;;;3.00;;
85291;SDS011;76128;47.194;14.662;2024-03-25T06:34:04;5.38;;;2.42;;
85291;SDS011;76128;47.194;14.662;2024-03-25T06:36:47;4.53;;;2.80;;
85291;SDS011;76128;47.194;14.662;2024-03-25T06:39:13;6.97;;;4.60;;
85291;SDS011;76128;47.194;14.662;2024-03-25T06:41:39;4.65;;;2.55;;
85291;SDS011;76128;47.194;14.662;2024-03-25T06:44:04;5.75;;;2.30;;
85291;SDS011;76128;47.194;14.662;2024-03-25T06:46:30;4.63;;;2.40;;
85291;SDS011;76128;47.194;14.662;2024-03-25T06:48:56;4.82;;;2.70;;
85291;SDS011;76128;47.194;14.662;2024-03-25T06:51:22;4.53;;;2.55;;
85291;SDS011;76128;47.194;14.662;2024-03-25T06:53:48;4.63;;;2.28;;
85291;SDS011;76128;47.194;14.662;2024-03-25T06:56:14;5.82;;;2.50;;
85291;SDS011;76128;47.194;14.662;2024-03-25T06:58:39;4.45;;;2.35;;
85291;SDS011;76128;47.194;14.662;2024-03-25T07:01:05;5.90;;;2.40;;
85291;SDS011;76128;47.194;14.662;2024-03-25T07:03:34;5.85;;;2.72;;
85291;SDS011;76128;47.194;14.662;2024-03-25T07:06:00;7.55;;;3.55;;
85291;SDS011;76128;47.194;14.662;2024-03-25T07:08:27;6.07;;;3.03;;
85291;SDS011;76128;47.194;14.662;2024-03-25T07:10:53;4.72;;;2.47;;
85291;SDS011;76128;47.194;14.662;2024-03-25T07:13:19;4.18;;;2.38;;
85291;SDS011;76128;47.194;14.662;2024-03-25T07:15:45;4.60;;;2.42;;
85291;SDS011;76128;47.194;14.662;2024-03-25T07:18:11;4.60;;;2.40;;
85291;SDS011;76128;47.194;14.662;2024-03-25T07:20:38;4.45;;;2.33;;
85291;SDS011;76128;47.194;14.662;2024-03-25T07:23:04;5.45;;;2.38;;
85291;SDS011;76128;47.194;14.662;2024-03-25T07:25:30;5.13;;;2.30;;
85291;SDS011;76128;47.194;14.662;2024-03-25T07:27:55;4.47;;;2.10;;
85291;SDS011;76128;47.194;14.662;2024-03-25T07:30:21;3.85;;;2.10;;
85291;SDS011;76128;47.194;14.662;2024-03-25T07:32:53;2.60;;;1.70;;
85291;SDS011;76128;47.194;14.662;2024-03-25T07:35:21;3.45;;;1.95;;
85291;SDS011;76128;47.194;14.662;2024-03-25T07:37:47;3.35;;;1.75;;
85291;SDS011;76128;47.194;14.662;2024-03-25T07:40:16;2.75;;;1.80;;
85291;SDS011;76128;47.194;14.662;2024-03-25T07:42:45;2.70;;;1.55;;
85291;SDS011;76128;47.194;14.662;2024-03-25T07:45:10;2.83;;;1.50;;
85291;SDS011;76128;47.194;14.662;2024-03-25T07:47:36;2.30;;;1.45;;
85291;SDS011;76128;47.194;14.662;2024-03-25T07:50:01;2.30;;;1.40;;
85291;SDS011;76128;47.194;14.662;2024-03-25T07:52:27;2.30;;;1.20;;
85291;SDS011;76128;47.194;14.662;2024-03-25T07:54:53;2.60;;;1.58;;
85291;SDS011;76128;47.194;14.662;2024-03-25T07:57:19;3.20;;;1.40;;
85291;SDS011;76128;47.194;14.662;2024-03-25T07:59:45;2.92;;;1.63;;
85291;SDS011;76128;47.194;14.662;2024-03-25T08:02:11;2.35;;;1.25;;
85291;SDS011;76128;47.194;14.662;2024-03-25T08:04:36;2.45;;;1.15;;
85291;SDS011;76128;47.194;14.662;2024-03-25T08:07:02;2.42;;;1.23;;
85291;SDS011;76128;47.194;14.662;2024-03-25T08:09:27;2.40;;;1.50;;
85291;SDS011;76128;47.194;14.662;2024-03-25T08:11:53;4.15;;;1.35;;
85291;SDS011;76128;47.194;14.662;2024-03-25T08:14:19;2.25;;;1.40;;
85291;SDS011;76128;47.194;14.662;2024-03-25T08:16:44;1.80;;;1.13;;
85291;SDS011;76128;47.194;14.662;2024-03-25T08:19:10;2.20;;;1.40;;
85291;SDS011;76128;47.194;14.662;2024-03-25T08:21:35;2.10;;;1.20;;
85291;SDS011;76128;47.194;14.662;2024-03-25T08:24:00;2.40;;;1.30;;
85291;SDS011;76128;47.194;14.662;2024-03-25T08:26:26;2.53;;;1.50;;
85291;SDS011;76128;47.194;14.662;2024-03-25T08:28:51;2.38;;;1.30;;
85291;SDS011;76128;47.194;14.662;2024-03-25T08:31:17;2.03;;;1.30;;
85291;SDS011;76128;47.194;14.662;2024-03-25T08:33:42;3.42;;;1.50;;
85291;SDS011;76128;47.194;14.662;2024-03-25T08:36:08;2.08;;;1.40;;
85291;SDS011;76128;47.194;14.662;2024-03-25T08:38:33;3.78;;;1.40;;
85291;SDS011;76128;47.194;14.662;2024-03-25T08:40:59;2.10;;;1.30;;
85291;SDS011;76128;47.194;14.662;2024-03-25T08:43:24;3.03;;;1.40;;
85291;SDS011;76128;47.194;14.662;2024-03-25T08:45:50;2.90;;;1.27;;
85291;SDS011;76128;47.194;14.662;2024-03-25T08:48:16;3.00;;;1.40;;
85291;SDS011;76128;47.194;14.662;2024-03-25T08:50:42;2.00;;;1.30;;
85291;SDS011;76128;47.194;14.662;2024-03-25T08:53:07;2.90;;;1.50;;
85291;SDS011;76128;47.194;14.662;2024-03-25T08:55:33;2.28;;;1.40;;
85291;SDS011;76128;47.194;14.662;2024-03-25T08:57:59;3.90;;;1.40;;
85291;SDS011;76128;47.194;14.662;2024-03-25T09:00:25;3.38;;;1.58;;
85291;SDS011;76128;47.194;14.662;2024-03-25T09:02:51;2.28;;;1.40;;
85291;SDS011;76128;47.194;14.662;2024-03-25T09:05:16;3.10;;;1.50;;
85291;SDS011;76128;47.194;14.662;2024-03-25T09:07:44;2.75;;;1.40;;
85291;SDS011;76128;47.194;14.662;2024-03-25T09:10:10;2.28;;;1.38;;
85291;SDS011;76128;47.194;14.662;2024-03-25T09:12:54;2.13;;;1.40;;
85291;SDS011;76128;47.194;14.662;2024-03-25T09:15:20;3.55;;;1.30;;
85291;SDS011;76128;47.194;14.662;2024-03-25T09:17:45;2.20;;;1.35;;
85291;SDS011;76128;47.194;14.662;2024-03-25T09:20:11;2.25;;;1.30;;
85291;SDS011;76128;47.194;14.662;2024-03-25T09:22:44;2.33;;;1.45;;
85291;SDS011;76128;47.194;14.662;2024-03-25T09:25:10;2.97;;;1.50;;
85291;SDS011;76128;47.194;14.662;2024-03-25T09:27:36;2.10;;;1.25;;
85291;SDS011;76128;47.194;14.662;2024-03-25T09:30:01;2.50;;;1.25;;
85291;SDS011;76128;47.194;14.662;2024-03-25T09:32:28;2.28;;;1.30;;
85291;SDS011;76128;47.194;14.662;2024-03-25T09:34:56;2.42;;;1.40;;
85291;SDS011;76128;47.194;14.662;2024-03-25T09:37:22;2.20;;;1.30;;
85291;SDS011;76128;47.194;14.662;2024-03-25T09:39:47;2.47;;;1.50;;
85291;SDS011;76128;47.194;14.662;2024-03-25T09:42:14;2.05;;;1.13;;
85291;SDS011;76128;47.194;14.662;2024-03-25T09:44:40;2.00;;;1.23;;
85291;SDS011;76128;47.194;14.662;2024-03-25T09:47:07;2.10;;;1.25;;
85291;SDS011;76128;47.194;14.662;2024-03-25T09:49:35;2.30;;;1.35;;
85291;SDS011;76128;47.194;14.662;2024-03-25T09:52:00;2.22;;;1.35;;
85291;SDS011;76128;47.194;14.662;2024-03-25T09:54:27;2.25;;;1.63;;
85291;SDS011;76128;47.194;14.662;2024-03-25T09:56:53;1.90;;;1.20;;
85291;SDS011;76128;47.194;14.662;2024-03-25T09:59:18;2.00;;;1.30;;
85291;SDS011;76128;47.194;14.662;2024-03-25T10:01:45;2.05;;;1.20;;
85291;SDS011;76128;47.194;14.662;2024-03-25T10:04:10;2.85;;;1.35;;
85291;SDS011;76128;47.194;14.662;2024-03-25T10:06:36;2.55;;;1.20;;
85291;SDS011;76128;47.194;14.662;2024-03-25T10:09:04;2.20;;;1.20;;
85291;SDS011;76128;47.194;14.662;2024-03-25T10:11:31;3.15;;;1.63;;
85291;SDS011;76128;47.194;14.662;2024-03-25T10:14:00;3.83;;;1.30;;
85291;SDS011;76128;47.194;14.662;2024-03-25T10:16:28;2.50;;;1.30;;
85291;SDS011;76128;47.194;14.662;2024-03-25T10:18:54;1.90;;;1.20;;
85291;SDS011;76128;47.194;14.662;2024-03-25T10:21:22;2.45;;;1.40;;
85291;SDS011;76128;47.194;14.662;2024-03-25T10:23:48;2.00;;;1.15;;
85291;SDS011;76128;47.194;14.662;2024-03-25T10:26:31;2.28;;;1.10;;
85291;SDS011;76128;47.194;14.662;2024-03-25T10:29:04;1.80;;;1.10;;
85291;SDS011;76128;47.194;14.662;2024-03-25T10:31:33;2.05;;;1.10;;
85291;SDS011;76128;47.194;14.662;2024-03-25T10:33:59;1.75;;;1.13;;
85291;SDS011;76128;47.194;14.662;2024-03-25T10:36:25;2.15;;;1.10;;
85291;SDS011;76128;47.194;14.662;2024-03-25T10:38:59;1.85;;;1.10;;
85291;SDS011;76128;47.194;14.662;2024-03-25T10:41:32;2.58;;;1.30;;
85291;SDS011;76128;47.194;14.662;2024-03-25T10:43:59;2.00;;;1.20;;
85291;SDS011;76128;47.194;14.662;2024-03-25T10:46:28;1.80;;;1.10;;
85291;SDS011;76128;47.194;14.662;2024-03-25T10:48:56;2.58;;;1.20;;
85291;SDS011;76128;47.194;14.662;2024-03-25T10:51:28;1.90;;;1.20;;
85291;SDS011;76128;47.194;14.662;2024-03-25T10:53:54;2.42;;;1.30;;
85291;SDS011;76128;47.194;14.662;2024-03-25T10:56:21;3.00;;;1.10;;
85291;SDS011;76128;47.194;14.662;2024-03-25T10:58:49;2.67;;;1.20;;
85291;SDS011;76128;47.194;14.662;2024-03-25T11:01:18;1.60;;;1.10;;
85291;SDS011;76128;47.194;14.662;2024-03-25T11:03:47;1.88;;;1.10;;
85291;SDS011;76128;47.194;14.662;2024-03-25T11:06:15;1.58;;;1.05;;
85291;SDS011;76128;47.194;14.662;2024-03-25T11:08:42;3.05;;;1.30;;
85291;SDS011;76128;47.194;14.662;2024-03-25T11:11:12;1.70;;;1.10;;
85291;SDS011;76128;47.194;14.662;2024-03-25T11:13:38;2.22;;;1.10;;
85291;SDS011;76128;47.194;14.662;2024-03-25T11:16:04;1.73;;;1.15;;
85291;SDS011;76128;47.194;14.662;2024-03-25T11:18:31;1.92;;;1.20;;
85291;SDS011;76128;47.194;14.662;2024-03-25T11:21:05;1.80;;;1.10;;
85291;SDS011;76128;47.194;14.662;2024-03-25T11:23:40;2.75;;;1.13;;
85291;SDS011;76128;47.194;14.662;2024-03-25T11:26:16;1.73;;;1.10;;
85291;SDS011;76128;47.194;14.662;2024-03-25T11:28:44;1.45;;;1.10;;
85291;SDS011;76128;47.194;14.662;2024-03-25T11:31:10;1.55;;;1.02;;
85291;SDS011;76128;47.194;14.662;2024-03-25T11:33:37;1.75;;;1.13;;
85291;SDS011;76128;47.194;14.662;2024-03-25T11:36:05;4.35;;;1.27;;
85291;SDS011;76128;47.194;14.662;2024-03-25T11:38:31;1.70;;;1.10;;
85291;SDS011;76128;47.194;14.662;2024-03-25T11:40:56;2.13;;;1.10;;
85291;SDS011;76128;47.194;14.662;2024-03-25T11:43:22;1.58;;;1.10;;
85291;SDS011;76128;47.194;14.662;2024-03-25T11:45:48;1.38;;;0.90;;
85291;SDS011;76128;47.194;14.662;2024-03-25T11:48:17;2.78;;;1.15;;
85291;SDS011;76128;47.194;14.662;2024-03-25T11:50:46;1.95;;;1.30;;
85291;SDS011;76128;47.194;14.662;2024-03-25T11:53:16;2.53;;;1.20;;
85291;SDS011;76128;47.194;14.662;2024-03-25T11:55:45;2.42;;;1.10;;
85291;SDS011;76128;47.194;14.662;2024-03-25T11:58:11;2.22;;;1.23;;
85291;SDS011;76128;47.194;14.662;2024-03-25T12:00:46;1.63;;;1.10;;
85291;SDS011;76128;47.194;14.662;2024-03-25T12:03:15;2.30;;;1.20;;
85291;SDS011;76128;47.194;14.662;2024-03-25T12:05:41;1.67;;;1.10;;
85291;SDS011;76128;47.194;14.662;2024-03-25T12:08:08;1.90;;;1.20;;
85291;SDS011;76128;47.194;14.662;2024-03-25T12:10:35;1.70;;;1.10;;
85291;SDS011;76128;47.194;14.662;2024-03-25T12:13:22;2.42;;;1.20;;
85291;SDS011;76128;47.194;14.662;2024-03-25T12:15:50;1.83;;;1.10;;
85291;SDS011;76128;47.194;14.662;2024-03-25T12:18:15;2.30;;;1.10;;
85291;SDS011;76128;47.194;14.662;2024-03-25T12:20:41;1.90;;;1.20;;
85291;SDS011;76128;47.194;14.662;2024-03-25T12:23:07;1.67;;;1.10;;
85291;SDS011;76128;47.194;14.662;2024-03-25T12:25:32;2.40;;;1.20;;
85291;SDS011;76128;47.194;14.662;2024-03-25T12:27:58;1.80;;;1.10;;
85291;SDS011;76128;47.194;14.662;2024-03-25T12:30:23;2.90;;;1.30;;
85291;SDS011;76128;47.194;14.662;2024-03-25T12:32:50;1.88;;;1.00;;
85291;SDS011;76128;47.194;14.662;2024-03-25T12:35:16;1.77;;;1.02;;
85291;SDS011;76128;47.194;14.662;2024-03-25T12:37:45;1.52;;;1.10;;
85291;SDS011;76128;47.194;14.662;2024-03-25T12:40:25;2.00;;;1.15;;
85291;SDS011;76128;47.194;14.662;2024-03-25T12:42:52;1.80;;;1.20;;
85291;SDS011;76128;47.194;14.662;2024-03-25T12:45:18;1.52;;;1.02;;
85291;SDS011;76128;47.194;14.662;2024-03-25T12:47:44;2.10;;;1.20;;
85291;SDS011;76128;47.194;14.662;2024-03-25T12:50:10;2.08;;;1.20;;
85291;SDS011;76128;47.194;14.662;2024-03-25T12:52:35;2.67;;;1.40;;
85291;SDS011;76128;47.194;14.662;2024-03-25T12:55:01;2.08;;;1.20;;
85291;SDS011;76128;47.194;14.662;2024-03-25T12:57:27;2.40;;;1.20;;
85291;SDS011;76128;47.194;14.662;2024-03-25T12:59:52;2.58;;;1.40;;
85291;SDS011;76128;47.194;14.662;2024-03-25T13:02:18;2.15;;;1.40;;
85291;SDS011;76128;47.194;14.662;2024-03-25T13:04:44;3.80;;;1.30;;
85291;SDS011;76128;47.194;14.662;2024-03-25T13:07:09;2.45;;;1.30;;
85291;SDS011;76128;47.194;14.662;2024-03-25T13:09:35;2.15;;;1.20;;
85291;SDS011;76128;47.194;14.662;2024-03-25T13:12:01;2.55;;;1.35;;
85291;SDS011;76128;47.194;14.662;2024-03-25T13:14:26;2.15;;;1.30;;
85291;SDS011;76128;47.194;14.662;2024-03-25T13:16:52;2.67;;;1.40;;
85291;SDS011;76128;47.194;14.662;2024-03-25T13:19:17;3.60;;;1.42;;
85291;SDS011;76128;47.194;14.662;2024-03-25T13:21:43;3.10;;;1.45;;
85291;SDS011;76128;47.194;14.662;2024-03-25T13:24:09;2.47;;;1.60;;
85291;SDS011;76128;47.194;14.662;2024-03-25T13:26:34;3.45;;;1.30;;
85291;SDS011;76128;47.194;14.662;2024-03-25T13:29:00;2.45;;;1.40;;
85291;SDS011;76128;47.194;14.662;2024-03-25T13:31:25;2.55;;;1.60;;
85291;SDS011;76128;47.194;14.662;2024-03-25T13:33:51;3.67;;;1.85;;
85291;SDS011;76128;47.194;14.662;2024-03-25T13:36:17;2.17;;;1.30;;
85291;SDS011;76128;47.194;14.662;2024-03-25T13:38:42;3.15;;;1.60;;
85291;SDS011;76128;47.194;14.662;2024-03-25T13:41:08;3.42;;;1.60;;
85291;SDS011;76128;47.194;14.662;2024-03-25T13:43:34;3.33;;;1.52;;
85291;SDS011;76128;47.194;14.662;2024-03-25T13:45:59;2.85;;;1.40;;
85291;SDS011;76128;47.194;14.662;2024-03-25T13:48:25;2.83;;;1.30;;
85291;SDS011;76128;47.194;14.662;2024-03-25T13:50:53;2.28;;;1.40;;
85291;SDS011;76128;47.194;14.662;2024-03-25T13:53:18;3.83;;;1.48;;
85291;SDS011;76128;47.194;14.662;2024-03-25T13:55:44;2.28;;;1.50;;
85291;SDS011;76128;47.194;14.662;2024-03-25T13:58:09;3.15;;;1.40;;
85291;SDS011;76128;47.194;14.662;2024-03-25T14:00:35;7.63;;;1.50;;
85291;SDS011;76128;47.194;14.662;2024-03-25T14:03:01;2.25;;;1.48;;
85291;SDS011;76128;47.194;14.662;2024-03-25T14:05:28;2.13;;;1.30;;
85291;SDS011;76128;47.194;14.662;2024-03-25T14:07:53;2.90;;;1.30;;
85291;SDS011;76128;47.194;14.662;2024-03-25T14:10:19;2.78;;;1.33;;
85291;SDS011;76128;47.194;14.662;2024-03-25T14:12:44;2.10;;;1.30;;
85291;SDS011;76128;47.194;14.662;2024-03-25T14:15:10;2.72;;;1.30;;
85291;SDS011;76128;47.194;14.662;2024-03-25T14:17:36;2.50;;;1.60;;
85291;SDS011;76128;47.194;14.662;2024-03-25T14:20:02;3.35;;;1.48;;
85291;SDS011;76128;47.194;14.662;2024-03-25T14:22:32;1.65;;;1.15;;
85291;SDS011;76128;47.194;14.662;2024-03-25T14:24:58;2.53;;;1.40;;
85291;SDS011;76128;47.194;14.662;2024-03-25T14:27:24;2.13;;;1.40;;
85291;SDS011;76128;47.194;14.662;2024-03-25T14:29:50;1.95;;;1.13;;